sensor_id;sensor_type;location;lat;lon;timestamp;pressure;altitude;pressure_sealevel;temperature;humidity
27144;BME280;14672;50.250;8.312;2023-05-02T00:00:56;98975.09;;;15.00;58.41
27144;BME280;14672;50.250;8.312;2023-05-02T00:03:22;98966.66;;;14.97;58.55
27144;BME280;14672;50.250;8.312;2023-05-02T00:05:47;98966.41;;;14.86;58.66
27144;BME280;14672;50.250;8.312;2023-05-02T00:08:13;98965.81;;;14.82;58.92
27144;BME280;14672;50.250;8.312;2023-05-02T00:10:40;98964.06;;;14.84;59.08
27144;BME280;14672;50.250;8.312;2023-05-02T00:13:06;98959.03;;;14.70;58.83
27144;BME280;14672;50.250;8.312;2023-05-02T00:15:32;98958.34;;;14.51;59.59
27144;BME280;14672;50.250;8.312;2023-05-02T00:17:58;98952.63;;;14.51;58.94
27144;BME280;14672;50.250;8.312;2023-05-02T00:20:24;98970.16;;;14.44;59.02
27144;BME280;14672;50.250;8.312;2023-05-02T00:22:50;98968.44;;;14.29;59.73
27144;BME280;14672;50.250;8.312;2023-05-02T00:25:16;98977.78;;;14.29;58.89
27144;BME280;14672;50.250;8.312;2023-05-02T00:27:43;98967.47;;;14.32;59.39
27144;BME280;14672;50.250;8.312;2023-05-02T00:30:11;98972.09;;;14.20;59.77
27144;BME280;14672;50.250;8.312;2023-05-02T00:32:37;98969.44;;;14.17;59.55
27144;BME280;14672;50.250;8.312;2023-05-02T00:35:04;98974.53;;;14.03;59.85
27144;BME280;14672;50.250;8.312;2023-05-02T00:37:30;98978.81;;;13.99;59.51
27144;BME280;14672;50.250;8.312;2023-05-02T00:39:56;98975.84;;;13.84;60.16
27144;BME280;14672;50.250;8.312;2023-05-02T00:42:21;98982.53;;;13.81;59.96
27144;BME280;14672;50.250;8.312;2023-05-02T00:44:47;98984.41;;;13.75;59.89
27144;BME280;14672;50.250;8.312;2023-05-02T00:47:14;98983.31;;;13.73;60.10
27144;BME280;14672;50.250;8.312;2023-05-02T00:49:40;98991.72;;;13.67;60.18
27144;BME280;14672;50.250;8.312;2023-05-02T00:52:07;98980.13;;;13.61;60.16
27144;BME280;14672;50.250;8.312;2023-05-02T00:54:35;98977.31;;;13.52;61.02
27144;BME280;14672;50.250;8.312;2023-05-02T00:57:02;98980.31;;;13.49;60.77
27144;BME280;14672;50.250;8.312;2023-05-02T00:59:27;98980.31;;;13.40;61.07
27144;BME280;14672;50.250;8.312;2023-05-02T01:02:24;98980.97;;;13.44;60.87
27144;BME280;14672;50.250;8.312;2023-05-02T01:05:27;98985.06;;;13.43;61.45
27144;BME280;14672;50.250;8.312;2023-05-02T01:08:22;98988.56;;;13.38;60.85
27144;BME280;14672;50.250;8.312;2023-05-02T01:11:16;98990.28;;;13.26;61.07
27144;BME280;14672;50.250;8.312;2023-05-02T01:13:47;99003.44;;;13.24;61.29
27144;BME280;14672;50.250;8.312;2023-05-02T01:16:18;98993.78;;;13.21;61.95
27144;BME280;14672;50.250;8.312;2023-05-02T01:18:47;98994.88;;;13.14;61.91
27144;BME280;14672;50.250;8.312;2023-05-02T01:21:13;98996.81;;;13.18;61.13
27144;BME280;14672;50.250;8.312;2023-05-02T01:24:04;98998.38;;;13.18;61.00
27144;BME280;14672;50.250;8.312;2023-05-02T01:29:28;99006.44;;;13.11;62.44
27144;BME280;14672;50.250;8.312;2023-05-02T01:31:57;99008.69;;;13.16;61.95
27144;BME280;14672;50.250;8.312;2023-05-02T01:34:27;99013.22;;;13.04;61.41
27144;BME280;14672;50.250;8.312;2023-05-02T01:36:56;99014.00;;;12.96;62.15
27144;BME280;14672;50.250;8.312;2023-05-02T01:39:24;99015.09;;;12.98;61.76
27144;BME280;14672;50.250;8.312;2023-05-02T01:41:53;99014.75;;;12.87;61.88
27144;BME280;14672;50.250;8.312;2023-05-02T01:44:22;99018.91;;;12.95;62.14
27144;BME280;14672;50.250;8.312;2023-05-02T01:46:50;99014.44;;;12.94;62.19
27144;BME280;14672;50.250;8.312;2023-05-02T01:49:18;99017.00;;;12.92;62.13
27144;BME280;14672;50.250;8.312;2023-05-02T01:51:47;99011.09;;;12.78;62.08
27144;BME280;14672;50.250;8.312;2023-05-02T01:54:16;99019.47;;;12.72;62.19
27144;BME280;14672;50.250;8.312;2023-05-02T01:56:43;99025.47;;;12.74;62.12
27144;BME280;14672;50.250;8.312;2023-05-02T01:59:21;99024.38;;;12.71;62.38
27144;BME280;14672;50.250;8.312;2023-05-02T02:01:50;99029.56;;;12.64;62.44
27144;BME280;14672;50.250;8.312;2023-05-02T02:04:18;99024.03;;;12.60;62.43
27144;BME280;14672;50.250;8.312;2023-05-02T02:06:52;99033.72;;;12.72;62.35
27144;BME280;14672;50.250;8.312;2023-05-02T02:09:20;99035.56;;;12.57;61.98
27144;BME280;14672;50.250;8.312;2023-05-02T02:11:54;99042.97;;;12.54;62.38
27144;BME280;14672;50.250;8.312;2023-05-02T02:14:25;99038.56;;;12.53;61.87
27144;BME280;14672;50.250;8.312;2023-05-02T02:16:55;99043.63;;;12.58;61.99
27144;BME280;14672;50.250;8.312;2023-05-02T02:19:22;99045.16;;;12.41;62.66
27144;BME280;14672;50.250;8.312;2023-05-02T02:21:50;99041.03;;;12.42;62.56
27144;BME280;14672;50.250;8.312;2023-05-02T02:24:18;99045.41;;;12.34;62.04
27144;BME280;14672;50.250;8.312;2023-05-02T02:26:45;99040.78;;;12.28;62.40
27144;BME280;14672;50.250;8.312;2023-05-02T02:29:11;99041.44;;;12.32;62.33
27144;BME280;14672;50.250;8.312;2023-05-02T02:31:37;99054.97;;;12.18;62.71
27144;BME280;14672;50.250;8.312;2023-05-02T02:34:04;99064.53;;;12.24;62.73
27144;BME280;14672;50.250;8.312;2023-05-02T02:36:43;99057.16;;;12.14;62.93
27144;BME280;14672;50.250;8.312;2023-05-02T02:39:21;99059.25;;;12.14;63.76
27144;BME280;14672;50.250;8.312;2023-05-02T02:45:15;99063.53;;;12.18;63.06
27144;BME280;14672;50.250;8.312;2023-05-02T02:48:17;99070.16;;;12.15;62.96
27144;BME280;14672;50.250;8.312;2023-05-02T02:53:31;99075.47;;;12.04;63.64
27144;BME280;14672;50.250;8.312;2023-05-02T02:56:10;99078.75;;;12.03;63.77
27144;BME280;14672;50.250;8.312;2023-05-02T03:01:50;99101.03;;;12.17;64.25
27144;BME280;14672;50.250;8.312;2023-05-02T03:04:21;99097.97;;;12.11;64.71
27144;BME280;14672;50.250;8.312;2023-05-02T03:06:49;99109.56;;;12.17;64.84
27144;BME280;14672;50.250;8.312;2023-05-02T03:09:15;99106.25;;;12.18;64.66
27144;BME280;14672;50.250;8.312;2023-05-02T03:11:44;99105.34;;;12.21;65.27
27144;BME280;14672;50.250;8.312;2023-05-02T03:14:11;99103.97;;;12.35;64.91
27144;BME280;14672;50.250;8.312;2023-05-02T03:16:40;99108.88;;;12.35;65.31
27144;BME280;14672;50.250;8.312;2023-05-02T03:19:07;99113.53;;;12.41;65.76
27144;BME280;14672;50.250;8.312;2023-05-02T03:21:33;99112.16;;;12.46;65.55
27144;BME280;14672;50.250;8.312;2023-05-02T03:24:02;99111.53;;;12.51;65.52
27144;BME280;14672;50.250;8.312;2023-05-02T03:26:28;99118.50;;;12.50;65.51
27144;BME280;14672;50.250;8.312;2023-05-02T03:28:55;99112.81;;;12.59;65.55
27144;BME280;14672;50.250;8.312;2023-05-02T03:31:21;99120.44;;;12.62;65.70
27144;BME280;14672;50.250;8.312;2023-05-02T03:33:48;99125.38;;;12.61;65.85
27144;BME280;14672;50.250;8.312;2023-05-02T03:36:14;99124.59;;;12.70;65.89
27144;BME280;14672;50.250;8.312;2023-05-02T03:38:41;99124.50;;;12.74;65.74
27144;BME280;14672;50.250;8.312;2023-05-02T03:41:06;99130.31;;;12.70;65.97
27144;BME280;14672;50.250;8.312;2023-05-02T03:43:32;99126.72;;;12.79;66.17
27144;BME280;14672;50.250;8.312;2023-05-02T03:46:07;99131.94;;;12.80;66.20
27144;BME280;14672;50.250;8.312;2023-05-02T03:48:34;99135.59;;;12.81;65.90
27144;BME280;14672;50.250;8.312;2023-05-02T03:51:02;99139.72;;;12.80;66.23
27144;BME280;14672;50.250;8.312;2023-05-02T03:53:29;99150.69;;;12.90;65.98
27144;BME280;14672;50.250;8.312;2023-05-02T03:55:56;99152.75;;;12.90;66.52
27144;BME280;14672;50.250;8.312;2023-05-02T03:58:22;99154.66;;;12.93;66.24
27144;BME280;14672;50.250;8.312;2023-05-02T04:00:50;99147.50;;;12.88;66.54
27144;BME280;14672;50.250;8.312;2023-05-02T04:03:17;99156.59;;;12.96;66.13
27144;BME280;14672;50.250;8.312;2023-05-02T04:05:43;99155.19;;;13.00;65.90
27144;BME280;14672;50.250;8.312;2023-05-02T04:08:10;99155.97;;;13.01;65.51
27144;BME280;14672;50.250;8.312;2023-05-02T04:10:36;99157.38;;;12.96;65.67
27144;BME280;14672;50.250;8.312;2023-05-02T04:13:02;99158.09;;;13.09;65.25
27144;BME280;14672;50.250;8.312;2023-05-02T04:15:30;99160.66;;;13.16;65.03
27144;BME280;14672;50.250;8.312;2023-05-02T04:17:59;99169.22;;;13.16;64.93
27144;BME280;14672;50.250;8.312;2023-05-02T04:20:25;99167.63;;;13.15;65.13
27144;BME280;14672;50.250;8.312;2023-05-02T04:22:51;99166.69;;;13.18;65.08
27144;BME280;14672;50.250;8.312;2023-05-02T04:25:17;99175.59;;;13.21;64.99
27144;BME280;14672;50.250;8.312;2023-05-02T04:27:43;99171.94;;;13.20;65.63
27144;BME280;14672;50.250;8.312;2023-05-02T04:30:09;99173.84;;;13.23;65.77
27144;BME280;14672;50.250;8.312;2023-05-02T04:32:36;99180.03;;;13.31;65.46
27144;BME280;14672;50.250;8.312;2023-05-02T04:35:02;99184.97;;;13.30;65.83
27144;BME280;14672;50.250;8.312;2023-05-02T04:37:29;99186.25;;;13.38;65.95
27144;BME280;14672;50.250;8.312;2023-05-02T04:39:54;99183.59;;;13.44;66.03
27144;BME280;14672;50.250;8.312;2023-05-02T04:42:20;99191.03;;;13.41;66.20
27144;BME280;14672;50.250;8.312;2023-05-02T04:44:47;99201.97;;;13.43;66.58
27144;BME280;14672;50.250;8.312;2023-05-02T04:47:13;99200.38;;;13.42;67.41
27144;BME280;14672;50.250;8.312;2023-05-02T04:49:39;99197.25;;;13.49;66.40
27144;BME280;14672;50.250;8.312;2023-05-02T04:52:05;99206.78;;;13.55;66.29
27144;BME280;14672;50.250;8.312;2023-05-02T04:54:34;99206.78;;;13.55;66.40
27144;BME280;14672;50.250;8.312;2023-05-02T04:57:00;99206.78;;;13.55;66.85
27144;BME280;14672;50.250;8.312;2023-05-02T04:59:28;99205.34;;;13.59;66.85
27144;BME280;14672;50.250;8.312;2023-05-02T05:01:55;99209.97;;;13.66;66.61
27144;BME280;14672;50.250;8.312;2023-05-02T05:04:21;99219.47;;;13.63;66.86
27144;BME280;14672;50.250;8.312;2023-05-02T05:06:47;99213.47;;;13.70;66.79
27144;BME280;14672;50.250;8.312;2023-05-02T05:09:14;99220.13;;;13.67;66.88
27144;BME280;14672;50.250;8.312;2023-05-02T05:11:40;99219.81;;;13.74;66.72
27144;BME280;14672;50.250;8.312;2023-05-02T05:14:08;99228.88;;;13.73;67.03
27144;BME280;14672;50.250;8.312;2023-05-02T05:16:34;99239.34;;;13.76;66.78
27144;BME280;14672;50.250;8.312;2023-05-02T05:19:00;99243.81;;;13.77;66.86
27144;BME280;14672;50.250;8.312;2023-05-02T05:21:26;99238.25;;;13.82;66.77
27144;BME280;14672;50.250;8.312;2023-05-02T05:23:51;99238.25;;;13.82;67.12
27144;BME280;14672;50.250;8.312;2023-05-02T05:26:17;99247.94;;;13.85;67.26
27144;BME280;14672;50.250;8.312;2023-05-02T05:28:44;99244.31;;;13.84;67.47
27144;BME280;14672;50.250;8.312;2023-05-02T05:31:12;99248.91;;;13.91;66.81
27144;BME280;14672;50.250;8.312;2023-05-02T05:33:38;99241.78;;;13.95;67.27
27144;BME280;14672;50.250;8.312;2023-05-02T05:36:10;99243.69;;;13.98;67.33
27144;BME280;14672;50.250;8.312;2023-05-02T05:38:36;99247.19;;;14.02;67.13
27144;BME280;14672;50.250;8.312;2023-05-02T05:41:03;99249.09;;;14.05;67.38
27144;BME280;14672;50.250;8.312;2023-05-02T05:43:36;99257.53;;;14.09;66.87
27144;BME280;14672;50.250;8.312;2023-05-02T05:46:02;99255.63;;;14.15;67.39
27144;BME280;14672;50.250;8.312;2023-05-02T05:48:31;99258.00;;;14.26;66.88
27144;BME280;14672;50.250;8.312;2023-05-02T05:50:56;99255.00;;;14.29;67.21
27144;BME280;14672;50.250;8.312;2023-05-02T05:53:22;99258.47;;;14.33;66.94
27144;BME280;14672;50.250;8.312;2023-05-02T05:55:48;99257.44;;;14.40;66.92
27144;BME280;14672;50.250;8.312;2023-05-02T05:58:14;99261.88;;;14.50;66.54
27144;BME280;14672;50.250;8.312;2023-05-02T06:00:40;99255.38;;;14.40;67.19
27144;BME280;14672;50.250;8.312;2023-05-02T06:03:06;99261.06;;;14.49;66.76
27144;BME280;14672;50.250;8.312;2023-05-02T06:05:32;99261.88;;;14.50;67.02
27144;BME280;14672;50.250;8.312;2023-05-02T06:07:59;99255.69;;;14.61;66.72
27144;BME280;14672;50.250;8.312;2023-05-02T06:10:25;99256.31;;;14.65;66.68
27144;BME280;14672;50.250;8.312;2023-05-02T06:12:51;99264.41;;;14.66;66.91
27144;BME280;14672;50.250;8.312;2023-05-02T06:15:17;99266.00;;;14.76;66.58
27144;BME280;14672;50.250;8.312;2023-05-02T06:17:42;99266.16;;;14.73;67.21
27144;BME280;14672;50.250;8.312;2023-05-02T06:20:08;99269.00;;;14.82;67.00
27144;BME280;14672;50.250;8.312;2023-05-02T06:22:35;99272.34;;;14.89;66.78
27144;BME280;14672;50.250;8.312;2023-05-02T06:25:01;99274.56;;;14.94;66.68
27144;BME280;14672;50.250;8.312;2023-05-02T06:27:27;99282.00;;;15.01;66.50
27144;BME280;14672;50.250;8.312;2023-05-02T06:29:53;99283.78;;;14.98;66.46
27144;BME280;14672;50.250;8.312;2023-05-02T06:32:19;99286.47;;;15.02;66.65
27144;BME280;14672;50.250;8.312;2023-05-02T06:34:44;99291.72;;;14.94;66.73
27144;BME280;14672;50.250;8.312;2023-05-02T06:37:10;99288.22;;;14.99;66.45
27144;BME280;14672;50.250;8.312;2023-05-02T06:39:36;99296.13;;;15.14;66.04
27144;BME280;14672;50.250;8.312;2023-05-02T06:42:02;99308.22;;;15.18;65.61
27144;BME280;14672;50.250;8.312;2023-05-02T06:44:29;99299.47;;;15.21;65.63
27144;BME280;14672;50.250;8.312;2023-05-02T06:46:54;99298.66;;;15.21;65.61
27144;BME280;14672;50.250;8.312;2023-05-02T06:49:25;99305.97;;;15.22;64.95
27144;BME280;14672;50.250;8.312;2023-05-02T06:51:50;99315.25;;;15.08;65.77
27144;BME280;14672;50.250;8.312;2023-05-02T06:54:16;99318.56;;;15.24;65.73
27144;BME280;14672;50.250;8.312;2023-05-02T06:56:42;99324.41;;;15.30;65.50
27144;BME280;14672;50.250;8.312;2023-05-02T06:59:09;99330.94;;;15.39;65.06
27144;BME280;14672;50.250;8.312;2023-05-02T07:01:36;99337.41;;;15.49;64.77
27144;BME280;14672;50.250;8.312;2023-05-02T07:04:01;99338.38;;;15.37;64.86
27144;BME280;14672;50.250;8.312;2023-05-02T07:06:31;99334.91;;;15.51;64.66
27144;BME280;14672;50.250;8.312;2023-05-02T07:08:57;99343.97;;;15.40;64.67
27144;BME280;14672;50.250;8.312;2023-05-02T07:11:23;99341.91;;;15.50;63.60
27144;BME280;14672;50.250;8.312;2023-05-02T07:13:49;99350.97;;;15.39;63.80
27144;BME280;14672;50.250;8.312;2023-05-02T07:16:15;99349.69;;;15.49;63.54
27144;BME280;14672;50.250;8.312;2023-05-02T07:18:42;99351.91;;;15.55;63.83
27144;BME280;14672;50.250;8.312;2023-05-02T07:21:11;99362.09;;;15.56;63.66
27144;BME280;14672;50.250;8.312;2023-05-02T07:23:37;99364.78;;;15.59;63.30
27144;BME280;14672;50.250;8.312;2023-05-02T07:26:03;99365.59;;;15.50;63.95
27144;BME280;14672;50.250;8.312;2023-05-02T07:28:32;99365.09;;;15.61;63.39
27144;BME280;14672;50.250;8.312;2023-05-02T07:30:58;99376.88;;;15.54;63.10
27144;BME280;14672;50.250;8.312;2023-05-02T07:33:24;99383.59;;;15.51;63.34
27144;BME280;14672;50.250;8.312;2023-05-02T07:35:50;99380.09;;;15.56;63.27
27144;BME280;14672;50.250;8.312;2023-05-02T07:38:16;99383.22;;;15.49;62.66
27144;BME280;14672;50.250;8.312;2023-05-02T07:40:42;99388.03;;;15.43;63.33
27144;BME280;14672;50.250;8.312;2023-05-02T07:43:08;99388.81;;;15.43;63.32
27144;BME280;14672;50.250;8.312;2023-05-02T07:45:34;99391.06;;;15.48;63.35
27144;BME280;14672;50.250;8.312;2023-05-02T07:48:00;99396.16;;;15.44;62.81
27144;BME280;14672;50.250;8.312;2023-05-02T07:50:26;99409.66;;;15.44;63.04
27144;BME280;14672;50.250;8.312;2023-05-02T07:52:54;99394.09;;;15.27;63.55
27144;BME280;14672;50.250;8.312;2023-05-02T07:55:21;99399.47;;;15.43;62.65
27144;BME280;14672;50.250;8.312;2023-05-02T07:57:46;99401.06;;;15.44;62.30
27144;BME280;14672;50.250;8.312;2023-05-02T08:00:13;99402.66;;;15.27;62.97
27144;BME280;14672;50.250;8.312;2023-05-02T08:02:40;99400.59;;;15.36;62.72
27144;BME280;14672;50.250;8.312;2023-05-02T08:05:07;99405.03;;;15.37;62.59
27144;BME280;14672;50.250;8.312;2023-05-02T08:07:33;99401.38;;;15.37;62.72
27144;BME280;14672;50.250;8.312;2023-05-02T08:10:00;99397.53;;;15.49;62.38
27144;BME280;14672;50.250;8.312;2023-05-02T08:12:26;99406.13;;;15.49;62.15
27144;BME280;14672;50.250;8.312;2023-05-02T08:14:52;99411.09;;;15.58;62.17
27144;BME280;14672;50.250;8.312;2023-05-02T08:17:18;99402.47;;;15.76;61.26
27144;BME280;14672;50.250;8.312;2023-05-02T08:19:44;99408.69;;;15.74;61.27
27144;BME280;14672;50.250;8.312;2023-05-02T08:22:10;99402.31;;;15.79;61.34
27144;BME280;14672;50.250;8.312;2023-05-02T08:24:36;99407.22;;;15.79;61.35
27144;BME280;14672;50.250;8.312;2023-05-02T08:27:01;99403.56;;;15.87;60.88
27144;BME280;14672;50.250;8.312;2023-05-02T08:29:29;99408.59;;;15.92;59.72
27144;BME280;14672;50.250;8.312;2023-05-02T08:31:56;99417.53;;;15.94;59.09
27144;BME280;14672;50.250;8.312;2023-05-02T08:34:22;99419.38;;;16.16;59.29
27144;BME280;14672;50.250;8.312;2023-05-02T08:36:47;99418.13;;;16.08;58.95
27144;BME280;14672;50.250;8.312;2023-05-02T08:39:13;99422.88;;;16.20;58.86
27144;BME280;14672;50.250;8.312;2023-05-02T08:41:39;99425.91;;;16.16;58.84
27144;BME280;14672;50.250;8.312;2023-05-02T08:44:05;99429.84;;;16.28;58.35
27144;BME280;14672;50.250;8.312;2023-05-02T08:46:35;99428.59;;;16.20;58.06
27144;BME280;14672;50.250;8.312;2023-05-02T08:49:02;99430.50;;;16.23;57.67
27144;BME280;14672;50.250;8.312;2023-05-02T08:51:29;99435.56;;;16.28;57.83
27144;BME280;14672;50.250;8.312;2023-05-02T08:53:57;99435.44;;;16.22;57.80
27144;BME280;14672;50.250;8.312;2023-05-02T08:56:24;99437.84;;;16.15;57.60
27144;BME280;14672;50.250;8.312;2023-05-02T08:58:50;99434.97;;;16.15;57.51
27144;BME280;14672;50.250;8.312;2023-05-02T09:01:18;99446.09;;;16.22;57.89
27144;BME280;14672;50.250;8.312;2023-05-02T09:03:47;99445.19;;;16.16;58.11
27144;BME280;14672;50.250;8.312;2023-05-02T09:06:20;99447.19;;;16.24;58.03
27144;BME280;14672;50.250;8.312;2023-05-02T09:08:50;99457.38;;;16.34;58.25
27144;BME280;14672;50.250;8.312;2023-05-02T09:11:20;99453.22;;;16.35;58.08
27144;BME280;14672;50.250;8.312;2023-05-02T09:13:50;99460.06;;;16.38;58.22
27144;BME280;14672;50.250;8.312;2023-05-02T09:16:25;99464.34;;;16.42;58.35
27144;BME280;14672;50.250;8.312;2023-05-02T09:21:22;99460.66;;;16.42;57.73
27144;BME280;14672;50.250;8.312;2023-05-02T09:23:55;99459.19;;;16.56;57.34
27144;BME280;14672;50.250;8.312;2023-05-02T09:26:27;99457.28;;;16.53;57.36
27144;BME280;14672;50.250;8.312;2023-05-02T09:29:00;99465.03;;;16.70;57.63
27144;BME280;14672;50.250;8.312;2023-05-02T09:31:30;99461.22;;;16.64;57.86
27144;BME280;14672;50.250;8.312;2023-05-02T09:34:09;99459.09;;;16.74;56.56
27144;BME280;14672;50.250;8.312;2023-05-02T09:36:50;99460.28;;;16.91;56.39
27144;BME280;14672;50.250;8.312;2023-05-02T09:39:28;99462.13;;;16.79;56.75
27144;BME280;14672;50.250;8.312;2023-05-02T09:41:54;99467.44;;;16.96;56.30
27144;BME280;14672;50.250;8.312;2023-05-02T09:44:27;99465.34;;;16.96;56.58
27144;BME280;14672;50.250;8.312;2023-05-02T09:47:00;99473.78;;;17.00;56.33
27144;BME280;14672;50.250;8.312;2023-05-02T09:49:44;99465.91;;;17.09;55.98
27144;BME280;14672;50.250;8.312;2023-05-02T09:52:15;99471.44;;;17.13;55.40
27144;BME280;14672;50.250;8.312;2023-05-02T09:54:41;99469.75;;;17.30;54.68
27144;BME280;14672;50.250;8.312;2023-05-02T09:57:08;99469.97;;;17.41;55.19
27144;BME280;14672;50.250;8.312;2023-05-02T09:59:35;99469.84;;;17.59;54.62
27144;BME280;14672;50.250;8.312;2023-05-02T10:02:03;99460.44;;;17.73;54.90
27144;BME280;14672;50.250;8.312;2023-05-02T10:04:31;99454.81;;;17.79;54.91
27144;BME280;14672;50.250;8.312;2023-05-02T10:06:58;99460.56;;;17.94;55.53
27144;BME280;14672;50.250;8.312;2023-05-02T10:09:25;99454.13;;;17.99;54.10
27144;BME280;14672;50.250;8.312;2023-05-02T10:11:54;99448.09;;;18.11;53.74
27144;BME280;14672;50.250;8.312;2023-05-02T10:14:23;99462.53;;;18.17;53.30
27144;BME280;14672;50.250;8.312;2023-05-02T10:17:34;99448.66;;;18.30;54.44
27144;BME280;14672;50.250;8.312;2023-05-02T10:20:03;99443.28;;;18.38;51.99
27144;BME280;14672;50.250;8.312;2023-05-02T10:22:30;99448.44;;;18.34;52.26
27144;BME280;14672;50.250;8.312;2023-05-02T10:24:57;99442.47;;;18.52;51.20
27144;BME280;14672;50.250;8.312;2023-05-02T10:27:24;99444.25;;;18.49;50.51
27144;BME280;14672;50.250;8.312;2023-05-02T10:29:51;99444.22;;;18.79;50.40
27144;BME280;14672;50.250;8.312;2023-05-02T10:32:17;99438.75;;;19.01;50.66
27144;BME280;14672;50.250;8.312;2023-05-02T10:34:43;99433.50;;;18.99;50.00
27144;BME280;14672;50.250;8.312;2023-05-02T10:37:11;99439.03;;;19.23;49.37
27144;BME280;14672;50.250;8.312;2023-05-02T10:39:37;99436.47;;;19.25;49.32
27144;BME280;14672;50.250;8.312;2023-05-02T10:42:03;99430.59;;;19.40;49.57
27144;BME280;14672;50.250;8.312;2023-05-02T10:44:35;99434.09;;;19.44;48.80
27144;BME280;14672;50.250;8.312;2023-05-02T10:47:21;99440.03;;;19.60;47.77
27144;BME280;14672;50.250;8.312;2023-05-02T10:50:00;99431.50;;;19.72;47.63
27144;BME280;14672;50.250;8.312;2023-05-02T10:52:32;99423.53;;;19.87;47.94
27144;BME280;14672;50.250;8.312;2023-05-02T10:55:22;99427.06;;;19.96;48.26
27144;BME280;14672;50.250;8.312;2023-05-02T11:00:31;99421.59;;;20.04;48.03
27144;BME280;14672;50.250;8.312;2023-05-02T11:02:58;99416.41;;;20.08;45.66
27144;BME280;14672;50.250;8.312;2023-05-02T11:05:25;99415.75;;;20.24;45.12
27144;BME280;14672;50.250;8.312;2023-05-02T11:10:45;99415.50;;;20.59;44.54
27144;BME280;14672;50.250;8.312;2023-05-02T11:13:11;99402.22;;;20.73;44.50
27144;BME280;14672;50.250;8.312;2023-05-02T11:18:10;99404.06;;;20.70;42.48
27144;BME280;14672;50.250;8.312;2023-05-02T11:20:41;99408.56;;;20.82;42.83
27144;BME280;14672;50.250;8.312;2023-05-02T11:25:45;99406.22;;;20.81;44.66
27144;BME280;14672;50.250;8.312;2023-05-02T11:31:06;99421.66;;;20.72;45.05
27144;BME280;14672;50.250;8.312;2023-05-02T11:33:32;99430.00;;;20.65;43.91
27144;BME280;14672;50.250;8.312;2023-05-02T11:35:58;99421.38;;;20.70;44.21
27144;BME280;14672;50.250;8.312;2023-05-02T11:38:33;99424.53;;;20.72;43.81
27144;BME280;14672;50.250;8.312;2023-05-02T11:41:00;99416.91;;;20.32;43.92
27144;BME280;14672;50.250;8.312;2023-05-02T11:43:28;99427.00;;;20.90;44.35
27144;BME280;14672;50.250;8.312;2023-05-02T11:45:55;99416.94;;;20.75;42.87
27144;BME280;14672;50.250;8.312;2023-05-02T11:48:22;99418.91;;;21.00;43.00
27144;BME280;14672;50.250;8.312;2023-05-02T11:50:57;99426.50;;;20.92;43.53
27144;BME280;14672;50.250;8.312;2023-05-02T11:53:27;99438.34;;;20.99;42.41
27144;BME280;14672;50.250;8.312;2023-05-02T11:56:03;99430.53;;;21.11;42.68
27144;BME280;14672;50.250;8.312;2023-05-02T11:58:31;99429.59;;;21.31;41.71
27144;BME280;14672;50.250;8.312;2023-05-02T12:01:19;99434.13;;;21.48;42.54
27144;BME280;14672;50.250;8.312;2023-05-02T12:03:44;99430.97;;;21.46;41.11
27144;BME280;14672;50.250;8.312;2023-05-02T12:06:16;99443.91;;;21.62;42.78
27144;BME280;14672;50.250;8.312;2023-05-02T12:08:46;99435.41;;;21.36;42.42
27144;BME280;14672;50.250;8.312;2023-05-02T12:11:14;99440.91;;;21.34;42.70
27144;BME280;14672;50.250;8.312;2023-05-02T12:13:48;99436.16;;;21.31;42.38
27144;BME280;14672;50.250;8.312;2023-05-02T12:16:15;99455.00;;;21.16;43.72
27144;BME280;14672;50.250;8.312;2023-05-02T12:18:42;99447.06;;;21.05;44.05
27144;BME280;14672;50.250;8.312;2023-05-02T12:21:08;99458.38;;;21.08;45.04
27144;BME280;14672;50.250;8.312;2023-05-02T12:23:34;99454.13;;;21.04;44.66
27144;BME280;14672;50.250;8.312;2023-05-02T12:26:24;99453.28;;;20.92;44.72
27144;BME280;14672;50.250;8.312;2023-05-02T12:28:54;99471.78;;;20.75;44.79
27144;BME280;14672;50.250;8.312;2023-05-02T12:31:21;99466.94;;;20.55;44.81
27144;BME280;14672;50.250;8.312;2023-05-02T12:33:48;99469.56;;;20.58;45.03
27144;BME280;14672;50.250;8.312;2023-05-02T12:36:15;99466.66;;;20.90;45.09
27144;BME280;14672;50.250;8.312;2023-05-02T12:38:53;99465.19;;;21.05;44.42
27144;BME280;14672;50.250;8.312;2023-05-02T12:41:36;99458.16;;;21.12;43.48
27144;BME280;14672;50.250;8.312;2023-05-02T12:44:03;99456.97;;;21.41;42.89
27144;BME280;14672;50.250;8.312;2023-05-02T12:46:29;99469.41;;;21.64;43.67
27144;BME280;14672;50.250;8.312;2023-05-02T12:49:09;99473.16;;;21.81;43.36
27144;BME280;14672;50.250;8.312;2023-05-02T12:51:38;99474.94;;;21.67;42.52
27144;BME280;14672;50.250;8.312;2023-05-02T12:54:04;99479.97;;;21.78;42.68
27144;BME280;14672;50.250;8.312;2023-05-02T12:56:41;99478.13;;;21.69;41.72
27144;BME280;14672;50.250;8.312;2023-05-02T12:59:08;99491.66;;;22.11;43.02
27144;BME280;14672;50.250;8.312;2023-05-02T13:01:35;99486.66;;;22.23;41.28
27144;BME280;14672;50.250;8.312;2023-05-02T13:04:01;99492.72;;;22.19;41.46
27144;BME280;14672;50.250;8.312;2023-05-02T13:06:27;99483.25;;;22.13;40.42
27144;BME280;14672;50.250;8.312;2023-05-02T13:08:52;99488.53;;;22.31;40.08
27144;BME280;14672;50.250;8.312;2023-05-02T13:11:18;99494.59;;;22.44;40.31
27144;BME280;14672;50.250;8.312;2023-05-02T13:13:45;99499.28;;;22.09;40.60
27144;BME280;14672;50.250;8.312;2023-05-02T13:16:10;99493.78;;;22.27;40.21
27144;BME280;14672;50.250;8.312;2023-05-02T13:18:36;99494.03;;;22.18;39.29
27144;BME280;14672;50.250;8.312;2023-05-02T13:21:02;99486.69;;;22.51;39.65
27144;BME280;14672;50.250;8.312;2023-05-02T13:23:29;99492.19;;;22.37;40.17
27144;BME280;14672;50.250;8.312;2023-05-02T13:25:55;99500.59;;;22.08;39.25
27144;BME280;14672;50.250;8.312;2023-05-02T13:28:21;99497.47;;;22.22;39.00
27144;BME280;14672;50.250;8.312;2023-05-02T13:30:46;99497.41;;;22.00;38.55
27144;BME280;14672;50.250;8.312;2023-05-02T13:33:12;99497.09;;;21.87;38.89
27144;BME280;14672;50.250;8.312;2023-05-02T13:35:38;99504.44;;;21.82;39.00